Time;durP1;ratioP1;P1;durP2;ratioP2;P2;SDS_P1;SDS_P2;PMS_P1;PMS_P2;Temp;Humidity;BMP_temperature;BMP_pressure;BME280_temperature;BME280_humidity;BME280_pressure;Samples;Min_cycle;Max_cycle;Signal;HPM_P1;HPM_P2
2022/06/21 00:00:33;;;;;;;;;;;13.40;99.90;;;;;;5087415;27;37788;-45
2022/06/21 00:03:03;;;;;;;;;;;13.40;99.90;;;;;;5087696;27;37691;-50
2022/06/21 00:05:34;;;;;;;;;;;13.30;99.90;;;;;;5086979;27;36150;-48
2022/06/21 00:08:01;;;;;;;;;;;13.30;99.90;;;;;;5086246;27;37632;-48
2022/06/21 00:10:34;;;;;;;;;;;13.30;99.90;;;;;;5085012;27;37884;-49
2022/06/21 00:13:01;;;;;;;;;;;13.20;99.90;;;;;;5086352;27;36698;-50
2022/06/21 00:15:28;;;;;;;;;;;13.20;99.90;;;;;;5085711;27;36395;-46
2022/06/21 00:17:55;;;;;;;;;;;13.20;99.90;;;;;;5086955;27;37412;-46
2022/06/21 00:20:25;;;;;;;;;;;13.20;99.90;;;;;;5087013;27;38763;-48
2022/06/21 00:22:52;;;;;;;;;;;13.10;99.90;;;;;;5087360;27;36725;-48
2022/06/21 00:25:21;;;;;;;;;;;13.10;99.90;;;;;;5086956;27;36432;-49
2022/06/21 00:27:48;;;;;;;;;;;13.00;99.90;;;;;;5086863;27;38603;-45
2022/06/21 00:30:15;;;;;;;;;;;13.00;99.90;;;;;;5086825;27;37063;-48
2022/06/21 00:32:42;;;;;;;;;;;13.00;99.90;;;;;;5084559;27;37466;-48
2022/06/21 00:35:11;;;;;;;;;;;12.90;99.90;;;;;;5083537;27;36473;-48
2022/06/21 00:37:41;;;;;;;;;;;12.90;99.90;;;;;;5083452;27;37715;-46
2022/06/21 00:40:17;;;;;;;;;;;12.90;99.90;;;;;;5084182;27;37210;-45
2022/06/21 00:42:45;;;;;;;;;;;12.90;99.90;;;;;;5086304;27;37767;-45
2022/06/21 00:45:14;;;;;;;;;;;12.80;99.90;;;;;;5088839;27;35069;-49
2022/06/21 00:47:43;;;;;;;;;;;12.80;99.90;;;;;;5089588;27;39702;-46
2022/06/21 00:50:13;;;;;;;;;;;12.80;99.90;;;;;;5089933;27;37840;-49
2022/06/21 00:52:44;;;;;;;;;;;12.80;99.90;;;;;;5089561;27;37772;-47
2022/06/21 00:55:14;;;;;;;;;;;12.70;99.90;;;;;;5087838;27;35031;-47
2022/06/21 00:57:44;;;;;;;;;;;12.70;99.90;;;;;;5089792;27;39322;-45
2022/06/21 01:00:25;;;;;;;;;;;12.70;99.90;;;;;;5090185;27;36559;-46
2022/06/21 01:02:52;;;;;;;;;;;12.70;99.90;;;;;;5089032;27;35819;-47
2022/06/21 01:05:19;;;;;;;;;;;12.60;99.90;;;;;;5089094;28;36179;-47
2022/06/21 01:07:48;;;;;;;;;;;12.60;99.90;;;;;;5088790;27;36503;-46
2022/06/21 01:10:17;;;;;;;;;;;12.60;99.90;;;;;;5089617;27;38669;-49
2022/06/21 01:12:46;;;;;;;;;;;12.60;99.90;;;;;;5089139;27;37777;-48
2022/06/21 01:15:16;;;;;;;;;;;12.60;99.90;;;;;;5086248;27;36215;-45
2022/06/21 01:17:43;;;;;;;;;;;12.60;99.90;;;;;;5088706;27;38120;-45
2022/06/21 01:20:11;;;;;;;;;;;12.60;99.90;;;;;;5090079;27;38451;-50
2022/06/21 01:22:43;;;;;;;;;;;12.60;99.90;;;;;;5089793;27;38452;-49
2022/06/21 01:25:21;;;;;;;;;;;12.50;99.90;;;;;;5089988;27;37029;-49
2022/06/21 01:27:51;;;;;;;;;;;12.50;99.90;;;;;;5089258;27;39073;-49
2022/06/21 01:30:18;;;;;;;;;;;12.50;99.90;;;;;;5090516;27;38128;-47
2022/06/21 01:32:45;;;;;;;;;;;12.60;99.90;;;;;;5090433;27;37498;-48
2022/06/21 01:35:17;;;;;;;;;;;12.60;99.90;;;;;;5088667;27;37691;-48
2022/06/21 01:37:44;;;;;;;;;;;12.60;99.90;;;;;;5088223;27;38558;-49
2022/06/21 01:40:13;;;;;;;;;;;12.60;99.90;;;;;;5088807;27;37841;-46
2022/06/21 01:42:41;;;;;;;;;;;12.60;99.90;;;;;;5089035;27;37034;-46
2022/06/21 01:45:12;;;;;;;;;;;12.60;99.90;;;;;;5088530;27;35287;-48
2022/06/21 01:47:44;;;;;;;;;;;12.60;99.90;;;;;;5088694;27;37692;-47
2022/06/21 01:50:11;;;;;;;;;;;12.60;99.90;;;;;;5088691;27;37645;-47
2022/06/21 01:52:43;;;;;;;;;;;12.60;99.90;;;;;;5089942;27;37817;-47
2022/06/21 01:55:14;;;;;;;;;;;12.60;99.90;;;;;;5085759;27;37380;-45
2022/06/21 01:57:41;;;;;;;;;;;12.50;99.90;;;;;;5088962;27;39162;-46
2022/06/21 02:00:10;;;;;;;;;;;12.50;99.90;;;;;;5088428;27;36620;-45
2022/06/21 02:02:39;;;;;;;;;;;12.40;99.90;;;;;;5088219;27;35931;-47
2022/06/21 02:05:10;;;;;;;;;;;12.40;99.90;;;;;;5088733;27;33835;-46
2022/06/21 02:07:40;;;;;;;;;;;12.40;99.90;;;;;;5087533;27;39673;-49
2022/06/21 02:10:12;;;;;;;;;;;12.40;99.90;;;;;;5087675;27;38417;-45
2022/06/21 02:12:41;;;;;;;;;;;12.40;99.90;;;;;;5088764;27;37457;-50
2022/06/21 02:15:18;;;;;;;;;;;12.40;99.90;;;;;;5086777;27;36970;-46
2022/06/21 02:17:45;;;;;;;;;;;12.40;99.90;;;;;;5088480;27;40609;-45
2022/06/21 02:20:17;;;;;;;;;;;12.50;99.90;;;;;;5088939;28;38257;-44
2022/06/21 02:22:44;;;;;;;;;;;12.50;99.90;;;;;;5088833;27;37828;-48
2022/06/21 02:25:15;;;;;;;;;;;12.40;99.90;;;;;;5088148;27;36151;-45
2022/06/21 02:27:42;;;;;;;;;;;12.30;99.90;;;;;;5088039;27;39717;-49
2022/06/21 02:30:15;;;;;;;;;;;12.30;99.90;;;;;;5088905;27;38899;-45
2022/06/21 02:32:43;;;;;;;;;;;12.30;99.90;;;;;;5088783;28;35891;-49
2022/06/21 02:35:16;;;;;;;;;;;12.30;99.90;;;;;;5088142;27;36228;-47
2022/06/21 02:37:44;;;;;;;;;;;12.30;99.90;;;;;;5087479;27;35240;-45
2022/06/21 02:40:17;;;;;;;;;;;12.30;99.90;;;;;;5088889;27;36796;-47
2022/06/21 02:42:44;;;;;;;;;;;12.30;99.90;;;;;;5088006;27;36521;-49
2022/06/21 02:45:20;;;;;;;;;;;12.20;99.90;;;;;;5087940;27;33931;-48
2022/06/21 02:47:49;;;;;;;;;;;12.30;99.90;;;;;;5088263;27;37791;-46
2022/06/21 02:50:24;;;;;;;;;;;12.40;99.90;;;;;;5087259;27;39747;-50
2022/06/21 02:52:53;;;;;;;;;;;12.40;99.90;;;;;;5088388;27;37597;-45
2022/06/21 02:55:26;;;;;;;;;;;12.50;99.90;;;;;;5086393;27;37101;-49
2022/06/21 02:57:56;;;;;;;;;;;12.50;99.90;;;;;;5087500;27;37584;-48
2022/06/21 03:00:25;;;;;;;;;;;12.50;99.90;;;;;;5087862;27;37950;-47
2022/06/21 03:02:53;;;;;;;;;;;12.60;99.90;;;;;;5087816;28;37625;-46
2022/06/21 03:05:22;;;;;;;;;;;12.60;99.90;;;;;;5086450;27;35976;-48
2022/06/21 03:07:53;;;;;;;;;;;12.60;99.90;;;;;;5087616;27;36409;-47
2022/06/21 03:10:23;;;;;;;;;;;12.70;99.90;;;;;;5087099;27;39251;-46
2022/06/21 03:12:53;;;;;;;;;;;12.70;99.90;;;;;;5087789;27;37202;-47
2022/06/21 03:15:20;;;;;;;;;;;12.70;99.90;;;;;;5086960;27;35246;-46
2022/06/21 03:17:53;;;;;;;;;;;12.80;99.90;;;;;;5086249;27;38395;-44
2022/06/21 03:20:20;;;;;;;;;;;12.70;99.90;;;;;;5087919;27;37725;-45
2022/06/21 03:22:49;;;;;;;;;;;12.70;99.90;;;;;;5087774;27;37046;-48
2022/06/21 03:25:18;;;;;;;;;;;12.80;99.90;;;;;;5088419;27;36638;-48
2022/06/21 03:27:49;;;;;;;;;;;12.80;99.90;;;;;;5087197;28;39107;-46
2022/06/21 03:30:18;;;;;;;;;;;12.80;99.90;;;;;;5086667;28;38911;-46
2022/06/21 03:32:46;;;;;;;;;;;12.80;99.90;;;;;;5085650;27;35917;-50
2022/06/21 03:35:15;;;;;;;;;;;12.80;99.90;;;;;;5085557;27;36337;-45
2022/06/21 03:37:43;;;;;;;;;;;12.80;99.90;;;;;;5085889;27;37536;-46
2022/06/21 03:42:58;;;;;;;;;;;12.90;99.90;;;;;;5086545;28;39251;-47
2022/06/21 03:45:28;;;;;;;;;;;12.90;99.90;;;;;;5086637;27;36368;-50
2022/06/21 03:47:59;;;;;;;;;;;12.90;99.90;;;;;;5086527;27;36502;-46
2022/06/21 03:50:30;;;;;;;;;;;12.90;99.90;;;;;;5087697;28;36490;-49
2022/06/21 03:53:02;;;;;;;;;;;12.90;99.90;;;;;;5087491;27;41015;-45
2022/06/21 03:55:34;;;;;;;;;;;13.00;99.90;;;;;;5085801;27;36225;-46
2022/06/21 03:58:03;;;;;;;;;;;13.00;99.90;;;;;;5087016;27;36404;-50
2022/06/21 04:00:32;;;;;;;;;;;13.00;99.90;;;;;;5086690;27;38594;-48
2022/06/21 04:03:03;;;;;;;;;;;13.10;99.90;;;;;;5087122;27;37864;-47
2022/06/21 04:05:33;;;;;;;;;;;13.10;99.90;;;;;;5087795;27;36491;-49
2022/06/21 04:08:01;;;;;;;;;;;13.10;99.90;;;;;;5086405;27;37759;-45
2022/06/21 04:10:31;;;;;;;;;;;13.10;99.90;;;;;;5086088;27;37649;-46
2022/06/21 04:12:59;;;;;;;;;;;13.10;99.90;;;;;;5087612;27;37209;-46
2022/06/21 04:15:30;;;;;;;;;;;13.10;99.90;;;;;;5085696;27;35162;-47
2022/06/21 04:18:00;;;;;;;;;;;13.10;99.90;;;;;;5083655;27;37794;-47
2022/06/21 04:20:29;;;;;;;;;;;13.20;99.90;;;;;;5086796;28;36759;-46
2022/06/21 04:23:01;;;;;;;;;;;13.20;99.90;;;;;;5087167;27;37744;-50
2022/06/21 04:25:33;;;;;;;;;;;13.20;99.90;;;;;;5087588;27;36205;-47
2022/06/21 04:28:03;;;;;;;;;;;13.20;99.90;;;;;;5086225;27;39608;-45
2022/06/21 04:30:33;;;;;;;;;;;13.20;99.90;;;;;;5086628;27;37677;-48
2022/06/21 04:33:06;;;;;;;;;;;13.20;99.90;;;;;;5087108;27;38180;-46
2022/06/21 04:35:35;;;;;;;;;;;13.30;99.90;;;;;;5084064;28;35290;-45
2022/06/21 04:38:05;;;;;;;;;;;13.40;99.90;;;;;;5085551;27;37687;-48
2022/06/21 04:40:34;;;;;;;;;;;13.60;99.90;;;;;;5087022;27;39361;-46
2022/06/21 04:43:02;;;;;;;;;;;13.70;99.90;;;;;;5084037;27;37991;-49
2022/06/21 04:45:32;;;;;;;;;;;13.90;99.90;;;;;;5084986;28;35587;-50
2022/06/21 04:48:05;;;;;;;;;;;14.00;99.90;;;;;;5084540;28;36804;-48
2022/06/21 04:50:33;;;;;;;;;;;14.10;99.90;;;;;;5085932;27;38606;-47
2022/06/21 04:53:03;;;;;;;;;;;14.30;99.90;;;;;;5086241;27;38673;-44
2022/06/21 04:55:35;;;;;;;;;;;14.40;99.90;;;;;;5085435;27;35162;-49
2022/06/21 04:58:02;;;;;;;;;;;14.40;99.90;;;;;;5086409;27;36578;-49
2022/06/21 05:00:29;;;;;;;;;;;14.60;99.90;;;;;;5085278;27;39423;-47
2022/06/21 05:02:58;;;;;;;;;;;14.60;99.90;;;;;;5085460;27;36867;-48
2022/06/21 05:05:26;;;;;;;;;;;14.70;99.90;;;;;;5084727;28;36848;-47
2022/06/21 05:07:55;;;;;;;;;;;14.80;99.90;;;;;;5084523;27;37478;-47
2022/06/21 05:10:24;;;;;;;;;;;14.90;99.90;;;;;;5085434;27;38500;-49
2022/06/21 05:12:54;;;;;;;;;;;15.00;99.90;;;;;;5083939;27;37925;-46
2022/06/21 05:15:23;;;;;;;;;;;15.10;99.90;;;;;;5084604;27;35225;-47
2022/06/21 05:17:53;;;;;;;;;;;15.20;99.90;;;;;;5083630;27;37937;-45
2022/06/21 05:20:23;;;;;;;;;;;15.20;99.90;;;;;;5083612;27;38217;-47
2022/06/21 05:22:51;;;;;;;;;;;15.40;99.90;;;;;;5085250;27;37815;-49
2022/06/21 05:25:22;;;;;;;;;;;15.40;99.90;;;;;;5085956;27;36939;-49
2022/06/21 05:27:52;;;;;;;;;;;15.50;99.90;;;;;;5085991;27;36504;-48
2022/06/21 05:30:23;;;;;;;;;;;15.60;99.90;;;;;;5087434;27;38201;-48
2022/06/21 05:32:51;;;;;;;;;;;15.70;99.90;;;;;;5089968;27;37859;-47
2022/06/21 05:35:21;;;;;;;;;;;15.90;99.90;;;;;;5088807;27;36467;-47
2022/06/21 05:37:50;;;;;;;;;;;15.90;99.90;;;;;;5088918;27;37538;-48
2022/06/21 05:40:20;;;;;;;;;;;16.10;99.90;;;;;;5088657;27;39394;-48
2022/06/21 05:42:47;;;;;;;;;;;16.10;99.90;;;;;;5087252;27;38172;-47
2022/06/21 05:45:15;;;;;;;;;;;16.20;99.90;;;;;;5087824;27;36634;-49
2022/06/21 05:47:46;;;;;;;;;;;16.30;99.90;;;;;;5089007;27;37191;-49
2022/06/21 05:50:16;;;;;;;;;;;16.40;99.90;;;;;;5088064;27;39208;-48
2022/06/21 05:52:44;;;;;;;;;;;16.50;99.90;;;;;;5086533;27;37116;-49
2022/06/21 05:55:15;;;;;;;;;;;16.50;99.90;;;;;;5087274;27;35128;-46
2022/06/21 05:57:44;;;;;;;;;;;16.60;99.90;;;;;;5087877;27;40679;-48
2022/06/21 06:00:19;;;;;;;;;;;16.60;99.90;;;;;;5088746;27;40586;-48
2022/06/21 06:02:51;;;;;;;;;;;16.60;99.90;;;;;;5088822;28;36833;-46
2022/06/21 06:05:20;;;;;;;;;;;16.70;99.90;;;;;;5088580;27;35456;-48
2022/06/21 06:07:50;;;;;;;;;;;16.80;99.90;;;;;;5088725;27;38402;-47
2022/06/21 06:10:19;;;;;;;;;;;16.90;99.90;;;;;;5087801;27;37360;-48
2022/06/21 06:12:49;;;;;;;;;;;16.90;99.90;;;;;;5089407;27;36918;-47
2022/06/21 06:15:20;;;;;;;;;;;16.90;99.90;;;;;;5088196;27;37015;-49
2022/06/21 06:17:53;;;;;;;;;;;16.80;99.90;;;;;;5088585;27;37516;-48
2022/06/21 06:20:25;;;;;;;;;;;16.80;99.90;;;;;;5089888;27;40210;-47
2022/06/21 06:22:56;;;;;;;;;;;16.90;99.90;;;;;;5089701;28;38801;-49
2022/06/21 06:25:26;;;;;;;;;;;16.90;99.90;;;;;;5088237;27;35945;-48
2022/06/21 06:27:57;;;;;;;;;;;16.80;99.70;;;;;;5089233;27;38544;-49
2022/06/21 06:30:27;;;;;;;;;;;16.70;99.90;;;;;;5088923;27;37775;-49
2022/06/21 06:33:01;;;;;;;;;;;16.50;99.90;;;;;;5087858;27;37327;-50
2022/06/21 06:35:29;;;;;;;;;;;16.40;99.90;;;;;;5087581;27;36565;-46
2022/06/21 06:37:56;;;;;;;;;;;16.30;99.90;;;;;;5087657;27;37928;-51
2022/06/21 06:40:25;;;;;;;;;;;16.30;99.90;;;;;;5088900;27;37609;-49
2022/06/21 06:42:55;;;;;;;;;;;16.20;99.90;;;;;;5087969;27;36796;-47
2022/06/21 06:45:25;;;;;;;;;;;16.20;99.90;;;;;;5088193;27;37133;-49
2022/06/21 06:47:54;;;;;;;;;;;16.30;99.90;;;;;;5088800;28;37938;-49
2022/06/21 06:50:24;;;;;;;;;;;16.40;99.90;;;;;;5088200;27;37989;-50
2022/06/21 06:52:52;;;;;;;;;;;16.40;99.90;;;;;;5088634;27;37889;-50
2022/06/21 06:55:21;;;;;;;;;;;16.50;99.90;;;;;;5088583;27;36131;-48
2022/06/21 06:57:49;;;;;;;;;;;16.70;99.90;;;;;;5089044;27;38591;-51
2022/06/21 07:00:18;;;;;;;;;;;16.80;99.90;;;;;;5087796;27;37868;-48
2022/06/21 07:02:47;;;;;;;;;;;16.90;99.90;;;;;;5089145;27;37086;-46
2022/06/21 07:05:16;;;;;;;;;;;17.10;99.90;;;;;;5087273;27;35368;-50
2022/06/21 07:07:47;;;;;;;;;;;17.30;99.30;;;;;;5087276;27;37479;-49
2022/06/21 07:10:17;;;;;;;;;;;17.50;99.10;;;;;;5087629;27;38801;-50
2022/06/21 07:12:44;;;;;;;;;;;17.50;98.20;;;;;;5087475;27;38336;-48
2022/06/21 07:15:12;;;;;;;;;;;17.60;98.80;;;;;;5087685;27;35235;-49
2022/06/21 07:17:41;;;;;;;;;;;17.60;98.20;;;;;;5086622;27;38941;-46
2022/06/21 07:20:14;;;;;;;;;;;17.70;97.80;;;;;;5087148;27;36693;-49
2022/06/21 07:22:41;;;;;;;;;;;17.70;97.50;;;;;;5086239;27;38800;-48
2022/06/21 07:25:17;;;;;;;;;;;17.70;97.70;;;;;;5087125;27;38475;-48
2022/06/21 07:27:47;;;;;;;;;;;17.80;97.10;;;;;;5087364;27;37685;-48
2022/06/21 07:30:16;;;;;;;;;;;17.80;97.50;;;;;;5087471;27;38365;-48
2022/06/21 07:32:47;;;;;;;;;;;17.80;97.10;;;;;;5086844;27;37399;-47
2022/06/21 07:35:18;;;;;;;;;;;17.90;98.10;;;;;;5088073;27;35975;-51
2022/06/21 07:37:49;;;;;;;;;;;18.00;97.80;;;;;;5087721;27;38681;-47
2022/06/21 07:40:23;;;;;;;;;;;18.00;97.10;;;;;;5087803;27;37267;-49
2022/06/21 07:42:54;;;;;;;;;;;17.80;97.00;;;;;;5087026;27;37302;-46
2022/06/21 07:45:23;;;;;;;;;;;17.60;97.70;;;;;;5085547;27;36387;-49
2022/06/21 07:47:51;;;;;;;;;;;17.60;97.70;;;;;;5087035;27;37932;-50
2022/06/21 07:50:21;;;;;;;;;;;17.60;97.50;;;;;;5087551;27;37977;-46
2022/06/21 07:52:51;;;;;;;;;;;17.60;97.40;;;;;;5086443;27;37189;-48
2022/06/21 07:55:22;;;;;;;;;;;17.70;98.00;;;;;;5085464;27;35769;-46
2022/06/21 07:57:53;;;;;;;;;;;17.80;97.10;;;;;;5087844;27;39867;-46
2022/06/21 08:00:22;;;;;;;;;;;17.90;97.40;;;;;;5087565;27;37790;-46
2022/06/21 08:08:38;;;;;;;;;;;18.30;95.60;;;;;;5034269;28;38030;-48
2022/06/21 08:11:10;;;;;;;;;;;18.40;96.50;;;;;;5033407;28;36634;-49
2022/06/21 08:13:39;;;;;;;;;;;18.50;97.00;;;;;;5057845;27;36447;-48
2022/06/21 08:16:08;;;;;;;;;;;18.60;95.40;;;;;;5086977;27;35295;-47
2022/06/21 08:18:39;;;;;;;;;;;18.60;96.20;;;;;;5087498;27;38956;-50
2022/06/21 08:21:09;;;;;;;;;;;18.70;95.50;;;;;;5086802;27;38575;-47
2022/06/21 08:23:39;;;;;;;;;;;18.80;96.00;;;;;;5087554;27;36846;-51
2022/06/21 08:26:11;;;;;;;;;;;18.90;96.80;;;;;;5087001;27;36899;-49
2022/06/21 08:28:45;;;;;;;;;;;19.00;97.60;;;;;;5087688;27;37751;-49
2022/06/21 08:31:13;;;;;;;;;;;19.20;96.80;;;;;;5087393;27;36739;-49
2022/06/21 08:33:46;;;;;;;;;;;19.30;96.20;;;;;;5086685;27;37043;-48
2022/06/21 08:36:17;;;;;;;;;;;19.30;95.50;;;;;;5086720;28;36826;-50
2022/06/21 08:38:46;;;;;;;;;;;19.10;94.60;;;;;;5087136;27;36501;-46
2022/06/21 08:44:36;;;;;;;;;;;19.00;95.60;;;;;;5086829;28;38374;-47
2022/06/21 08:47:22;;;;;;;;;;;18.90;95.70;;;;;;5086452;27;35101;-45
2022/06/21 08:50:00;;;;;;;;;;;19.00;95.50;;;;;;5087890;27;38609;-46
2022/06/21 08:52:34;;;;;;;;;;;19.20;95.00;;;;;;5087740;27;37535;-49
2022/06/21 08:55:05;;;;;;;;;;;19.20;93.40;;;;;;5085558;27;38103;-49
2022/06/21 08:57:37;;;;;;;;;;;19.20;92.20;;;;;;5086650;27;38312;-49
2022/06/21 09:00:08;;;;;;;;;;;19.20;93.30;;;;;;5086613;27;38552;-48
2022/06/21 09:02:44;;;;;;;;;;;19.30;94.70;;;;;;5087187;27;38159;-49
2022/06/21 09:05:25;;;;;;;;;;;19.50;95.70;;;;;;5089636;27;35929;-49
2022/06/21 09:07:58;;;;;;;;;;;19.70;93.40;;;;;;5089918;27;37298;-49
2022/06/21 09:10:37;;;;;;;;;;;19.60;92.70;;;;;;5089070;27;39157;-46
2022/06/21 09:13:13;;;;;;;;;;;19.60;92.00;;;;;;5090903;27;36977;-47
2022/06/21 09:15:47;;;;;;;;;;;19.70;92.60;;;;;;5089838;27;37886;-48
2022/06/21 09:18:35;;;;;;;;;;;19.80;92.80;;;;;;5089344;27;36959;-49
2022/06/21 09:21:06;;;;;;;;;;;19.80;91.90;;;;;;5085904;27;38766;-45
2022/06/21 09:23:44;;;;;;;;;;;19.70;92.50;;;;;;5086589;27;38242;-48
2022/06/21 09:26:17;;;;;;;;;;;19.70;91.70;;;;;;5088784;28;36525;-50
2022/06/21 09:28:45;;;;;;;;;;;19.90;93.10;;;;;;5088948;28;36627;-45
2022/06/21 09:31:19;;;;;;;;;;;20.00;93.10;;;;;;5084783;27;37798;-49
2022/06/21 09:33:49;;;;;;;;;;;20.20;93.50;;;;;;5089129;27;36537;-46
2022/06/21 09:36:22;;;;;;;;;;;20.40;91.50;;;;;;5088072;27;37290;-47
2022/06/21 09:38:54;;;;;;;;;;;20.40;90.90;;;;;;5088364;27;34938;-46
2022/06/21 09:41:24;;;;;;;;;;;20.40;91.30;;;;;;5089176;28;36179;-46
2022/06/21 09:44:01;;;;;;;;;;;20.40;90.70;;;;;;5088385;27;40501;-47
2022/06/21 09:46:43;;;;;;;;;;;20.50;91.90;;;;;;5086901;28;38562;-46
2022/06/21 09:49:14;;;;;;;;;;;20.70;87.80;;;;;;5087861;27;35106;-45
2022/06/21 09:51:47;;;;;;;;;;;20.70;85.30;;;;;;5086022;27;38398;-45
2022/06/21 09:54:25;;;;;;;;;;;20.90;88.50;;;;;;5087151;28;37859;-47
2022/06/21 09:56:57;;;;;;;;;;;20.90;88.20;;;;;;5088527;27;37452;-50
2022/06/21 09:59:27;;;;;;;;;;;20.90;90.00;;;;;;5088111;28;35719;-49
2022/06/21 10:01:58;;;;;;;;;;;20.80;88.50;;;;;;5089569;28;36501;-46
2022/06/21 10:04:30;;;;;;;;;;;20.80;91.10;;;;;;5089270;27;40619;-48
2022/06/21 10:07:01;;;;;;;;;;;21.00;90.90;;;;;;5088803;27;35879;-47
2022/06/21 10:09:36;;;;;;;;;;;21.00;90.80;;;;;;5084888;27;36379;-47
2022/06/21 10:12:08;;;;;;;;;;;21.00;90.80;;;;;;5086618;27;36473;-45
2022/06/21 10:14:59;;;;;;;;;;;21.10;88.30;;;;;;5087936;27;36796;-47
2022/06/21 10:17:44;;;;;;;;;;;21.10;82.60;;;;;;5072328;27;37025;-48
2022/06/21 10:20:21;;;;;;;;;;;21.30;89.70;;;;;;5077535;28;35015;-49
2022/06/21 10:22:53;;;;;;;;;;;21.40;86.90;;;;;;5087348;27;40365;-49
2022/06/21 10:25:44;;;;;;;;;;;21.20;82.90;;;;;;5089130;27;36804;-48
2022/06/21 10:28:29;;;;;;;;;;;21.00;85.00;;;;;;5077110;27;37364;-46
2022/06/21 10:31:23;;;;;;;;;;;20.80;85.70;;;;;;5084136;27;38923;-50
2022/06/21 10:34:02;;;;;;;;;;;20.80;86.30;;;;;;5061690;27;38232;-48
2022/06/21 10:36:35;;;;;;;;;;;21.00;86.30;;;;;;5086026;27;39436;-49
2022/06/21 10:39:08;;;;;;;;;;;21.10;88.30;;;;;;5086365;28;39006;-49
2022/06/21 10:41:40;;;;;;;;;;;21.00;87.80;;;;;;5086406;28;37128;-49
2022/06/21 10:44:16;;;;;;;;;;;21.00;87.50;;;;;;5087037;27;37331;-47
2022/06/21 10:46:45;;;;;;;;;;;21.00;86.20;;;;;;5085734;27;37763;-50
2022/06/21 10:49:24;;;;;;;;;;;21.10;90.00;;;;;;5086329;27;37059;-49
2022/06/21 10:52:11;;;;;;;;;;;21.10;86.10;;;;;;5086545;27;35172;-46
2022/06/21 10:54:56;;;;;;;;;;;21.20;82.20;;;;;;5086450;27;38473;-48
2022/06/21 10:57:31;;;;;;;;;;;21.30;83.60;;;;;;5086975;27;40287;-49
2022/06/21 11:03:09;;;;;;;;;;;21.40;80.00;;;;;;5073697;27;37095;-48
2022/06/21 11:05:40;;;;;;;;;;;21.30;80.30;;;;;;5087342;27;37790;-48
2022/06/21 11:08:10;;;;;;;;;;;21.30;77.80;;;;;;5087208;27;38575;-50
2022/06/21 11:10:44;;;;;;;;;;;21.30;81.90;;;;;;5085983;27;37053;-48
2022/06/21 11:13:14;;;;;;;;;;;21.30;85.20;;;;;;5087170;27;36236;-49
2022/06/21 11:15:45;;;;;;;;;;;21.40;82.80;;;;;;5086532;27;37548;-45
2022/06/21 11:18:19;;;;;;;;;;;21.50;85.10;;;;;;5087634;27;39915;-46
2022/06/21 11:20:51;;;;;;;;;;;21.60;82.00;;;;;;5086907;27;37320;-51
2022/06/21 11:23:23;;;;;;;;;;;21.70;80.30;;;;;;5087491;27;36707;-48
2022/06/21 11:25:55;;;;;;;;;;;21.70;81.30;;;;;;5086846;27;40234;-46
2022/06/21 11:28:32;;;;;;;;;;;21.70;83.80;;;;;;5085462;27;36680;-46
2022/06/21 11:31:03;;;;;;;;;;;21.80;83.90;;;;;;5083093;27;37476;-47
2022/06/21 11:33:33;;;;;;;;;;;21.80;83.50;;;;;;5087222;27;36156;-54
2022/06/21 11:36:03;;;;;;;;;;;21.80;79.00;;;;;;5086887;27;39378;-55
2022/06/21 11:38:36;;;;;;;;;;;21.80;75.80;;;;;;5086886;27;40272;-54
2022/06/21 11:41:08;;;;;;;;;;;21.80;84.00;;;;;;5087364;27;37386;-55
2022/06/21 11:43:50;;;;;;;;;;;21.80;80.50;;;;;;5087369;28;36235;-46
2022/06/21 11:46:23;;;;;;;;;;;21.70;81.60;;;;;;5086616;27;37503;-55
2022/06/21 11:49:00;;;;;;;;;;;21.70;83.60;;;;;;5086870;27;38226;-55
2022/06/21 11:51:36;;;;;;;;;;;21.80;83.40;;;;;;5087049;27;36910;-55
2022/06/21 11:54:07;;;;;;;;;;;21.80;78.50;;;;;;5086138;27;36882;-55
2022/06/21 11:56:39;;;;;;;;;;;21.70;82.40;;;;;;5085697;27;37666;-55
2022/06/21 11:59:13;;;;;;;;;;;21.70;83.10;;;;;;5086141;27;38193;-55
2022/06/21 12:01:45;;;;;;;;;;;21.80;82.40;;;;;;5084588;27;38027;-55
2022/06/21 12:04:18;;;;;;;;;;;21.70;83.00;;;;;;5084111;27;37745;-45
2022/06/21 12:06:49;;;;;;;;;;;21.70;81.80;;;;;;5085438;27;37790;-46
2022/06/21 12:09:18;;;;;;;;;;;21.60;80.20;;;;;;5084821;27;38456;-45
2022/06/21 12:11:51;;;;;;;;;;;21.50;83.20;;;;;;5085222;27;35904;-46
2022/06/21 12:14:31;;;;;;;;;;;21.40;82.10;;;;;;5086563;27;38432;-54
2022/06/21 12:17:05;;;;;;;;;;;21.40;84.40;;;;;;5087128;27;39769;-55
2022/06/21 12:19:33;;;;;;;;;;;21.50;85.50;;;;;;5087601;27;37229;-55
2022/06/21 12:22:05;;;;;;;;;;;21.50;84.30;;;;;;5086707;27;36832;-46
2022/06/21 12:24:33;;;;;;;;;;;21.50;80.40;;;;;;5087060;27;36144;-47
2022/06/21 12:27:00;;;;;;;;;;;21.60;75.20;;;;;;5086498;27;37372;-47
2022/06/21 12:29:29;;;;;;;;;;;21.50;73.50;;;;;;5086155;27;40680;-45
2022/06/21 12:32:00;;;;;;;;;;;21.50;81.60;;;;;;5085727;27;37408;-45
2022/06/21 12:34:30;;;;;;;;;;;21.60;82.90;;;;;;5086680;27;36336;-46
2022/06/21 12:37:01;;;;;;;;;;;21.60;82.80;;;;;;5085925;27;36363;-46
2022/06/21 12:39:30;;;;;;;;;;;21.60;80.80;;;;;;5087125;27;37990;-46
2022/06/21 12:42:08;;;;;;;;;;;21.50;82.40;;;;;;5087576;28;35870;-55
2022/06/21 12:44:43;;;;;;;;;;;21.50;81.70;;;;;;5087311;28;35179;-55
2022/06/21 12:47:17;;;;;;;;;;;21.60;81.10;;;;;;5088272;27;37506;-55
2022/06/21 12:50:09;;;;;;;;;;;21.50;77.10;;;;;;5087908;27;37593;-54
2022/06/21 12:52:38;;;;;;;;;;;21.40;79.50;;;;;;5087843;27;38091;-55
2022/06/21 12:55:10;;;;;;;;;;;21.40;80.90;;;;;;5087001;27;37007;-55
2022/06/21 12:57:44;;;;;;;;;;;21.30;80.40;;;;;;5088771;27;40017;-55
2022/06/21 13:00:19;;;;;;;;;;;21.20;76.80;;;;;;5089150;27;36699;-55
2022/06/21 13:03:06;;;;;;;;;;;21.20;80.60;;;;;;5089089;28;35820;-55
2022/06/21 13:05:38;;;;;;;;;;;21.10;81.10;;;;;;5090674;27;36558;-54
2022/06/21 13:08:13;;;;;;;;;;;21.10;83.50;;;;;;5090512;27;37822;-46
2022/06/21 13:10:42;;;;;;;;;;;21.10;86.30;;;;;;5084549;27;38217;-47
2022/06/21 13:13:22;;;;;;;;;;;21.20;87.60;;;;;;5089375;27;37451;-54
2022/06/21 13:15:55;;;;;;;;;;;21.20;85.30;;;;;;5088819;27;36912;-54
2022/06/21 13:18:32;;;;;;;;;;;21.20;82.00;;;;;;5089509;27;36447;-54
2022/06/21 13:21:07;;;;;;;;;;;21.20;85.00;;;;;;5089987;27;36606;-55
2022/06/21 13:23:39;;;;;;;;;;;21.20;86.00;;;;;;5089511;27;36560;-46
2022/06/21 13:26:10;;;;;;;;;;;21.20;79.80;;;;;;5090119;27;35109;-45
2022/06/21 13:28:55;;;;;;;;;;;21.10;80.40;;;;;;5089753;27;37368;-46
2022/06/21 13:31:26;;;;;;;;;;;21.10;83.40;;;;;;5089454;27;38250;-49
2022/06/21 13:33:56;;;;;;;;;;;21.00;83.50;;;;;;5090483;28;36074;-47
2022/06/21 13:36:27;;;;;;;;;;;21.00;84.20;;;;;;5089479;27;40524;-47
2022/06/21 13:38:56;;;;;;;;;;;21.00;83.30;;;;;;5090043;28;40284;-46
2022/06/21 13:44:13;;;;;;;;;;;20.90;87.30;;;;;;5089934;28;39091;-48
2022/06/21 13:46:46;;;;;;;;;;;20.90;88.10;;;;;;5088192;27;36737;-46
2022/06/21 13:49:16;;;;;;;;;;;20.80;86.50;;;;;;5088471;27;39512;-56
2022/06/21 13:51:46;;;;;;;;;;;20.80;87.60;;;;;;5086544;27;38214;-55
2022/06/21 13:54:16;;;;;;;;;;;20.80;87.00;;;;;;5088540;27;37846;-45
2022/06/21 13:56:47;;;;;;;;;;;20.80;86.70;;;;;;5084144;27;36931;-46
2022/06/21 13:59:16;;;;;;;;;;;20.80;88.00;;;;;;5089125;27;36471;-56
2022/06/21 14:01:47;;;;;;;;;;;20.80;88.20;;;;;;5088019;27;38828;-46
2022/06/21 14:04:18;;;;;;;;;;;20.80;88.50;;;;;;5088140;27;36214;-56
2022/06/21 14:06:48;;;;;;;;;;;20.90;89.60;;;;;;5088946;27;36236;-56
2022/06/21 14:09:18;;;;;;;;;;;20.90;87.90;;;;;;5086304;27;37781;-54
2022/06/21 14:11:51;;;;;;;;;;;20.90;84.80;;;;;;5088033;27;36861;-55
2022/06/21 14:14:26;;;;;;;;;;;20.90;85.00;;;;;;5086379;27;38219;-45
2022/06/21 14:16:59;;;;;;;;;;;20.90;84.90;;;;;;5087018;27;37352;-46
2022/06/21 14:19:31;;;;;;;;;;;20.90;83.90;;;;;;5089583;27;36891;-54
2022/06/21 14:22:05;;;;;;;;;;;20.90;82.30;;;;;;5088423;27;36088;-49
2022/06/21 14:24:37;;;;;;;;;;;20.80;81.00;;;;;;5087772;27;36230;-48
2022/06/21 14:27:08;;;;;;;;;;;20.80;80.40;;;;;;5087334;27;36371;-55
2022/06/21 14:29:40;;;;;;;;;;;20.80;82.10;;;;;;5086035;27;37467;-54
2022/06/21 14:32:13;;;;;;;;;;;20.70;82.80;;;;;;5087743;27;38495;-47
2022/06/21 14:34:43;;;;;;;;;;;20.70;84.10;;;;;;5087445;27;41478;-47
2022/06/21 14:37:15;;;;;;;;;;;20.70;86.40;;;;;;5086152;28;37033;-53
2022/06/21 14:39:45;;;;;;;;;;;20.70;82.60;;;;;;5086344;27;39779;-56
2022/06/21 14:42:14;;;;;;;;;;;20.70;85.40;;;;;;5087685;27;38550;-55
2022/06/21 14:44:47;;;;;;;;;;;20.70;83.10;;;;;;5085966;27;35880;-55
2022/06/21 14:47:17;;;;;;;;;;;20.70;85.30;;;;;;5087952;27;37186;-55
2022/06/21 14:49:50;;;;;;;;;;;20.60;91.00;;;;;;5088332;27;38331;-55
2022/06/21 14:52:48;;;;;;;;;;;20.50;92.70;;;;;;5087297;27;42166;-55
2022/06/21 14:55:22;;;;;;;;;;;20.40;93.50;;;;;;5043327;28;38512;-47
2022/06/21 14:57:58;;;;;;;;;;;20.30;94.30;;;;;;5078006;27;36218;-55